sensor_id;sensor_type;location;lat;lon;timestamp;P1;durP1;ratioP1;P2;durP2;ratioP2
14698;SDS011;7439;50.804;4.602;2023-03-14T00:01:43;4.30;;;2.93;;
14698;SDS011;7439;50.804;4.602;2023-03-14T00:04:10;6.17;;;2.93;;
14698;SDS011;7439;50.804;4.602;2023-03-14T00:06:37;7.63;;;3.30;;
14698;SDS011;7439;50.804;4.602;2023-03-14T00:09:05;8.97;;;3.10;;
14698;SDS011;7439;50.804;4.602;2023-03-14T00:11:34;5.67;;;3.00;;
14698;SDS011;7439;50.804;4.602;2023-03-14T00:14:01;7.30;;;3.30;;
14698;SDS011;7439;50.804;4.602;2023-03-14T00:16:29;10.07;;;2.80;;
14698;SDS011;7439;50.804;4.602;2023-03-14T00:18:57;9.03;;;3.27;;
14698;SDS011;7439;50.804;4.602;2023-03-14T00:21:25;8.50;;;3.23;;
14698;SDS011;7439;50.804;4.602;2023-03-14T00:23:52;10.47;;;3.60;;
14698;SDS011;7439;50.804;4.602;2023-03-14T00:26:20;11.20;;;3.83;;
14698;SDS011;7439;50.804;4.602;2023-03-14T00:28:52;5.97;;;3.10;;
14698;SDS011;7439;50.804;4.602;2023-03-14T00:31:19;10.47;;;3.50;;
14698;SDS011;7439;50.804;4.602;2023-03-14T00:33:47;8.60;;;3.30;;
14698;SDS011;7439;50.804;4.602;2023-03-14T00:36:15;8.43;;;3.20;;
14698;SDS011;7439;50.804;4.602;2023-03-14T00:38:43;9.17;;;2.90;;
14698;SDS011;7439;50.804;4.602;2023-03-14T00:41:12;8.07;;;3.57;;
14698;SDS011;7439;50.804;4.602;2023-03-14T00:43:40;9.53;;;3.20;;
14698;SDS011;7439;50.804;4.602;2023-03-14T00:46:09;11.93;;;3.67;;
14698;SDS011;7439;50.804;4.602;2023-03-14T00:48:36;14.67;;;3.90;;
14698;SDS011;7439;50.804;4.602;2023-03-14T00:51:04;9.07;;;3.70;;
14698;SDS011;7439;50.804;4.602;2023-03-14T00:53:31;7.60;;;3.30;;
14698;SDS011;7439;50.804;4.602;2023-03-14T00:56:02;8.73;;;3.27;;
14698;SDS011;7439;50.804;4.602;2023-03-14T00:58:29;7.63;;;3.23;;
14698;SDS011;7439;50.804;4.602;2023-03-14T01:00:57;11.37;;;3.37;;
14698;SDS011;7439;50.804;4.602;2023-03-14T01:03:26;13.23;;;3.60;;
14698;SDS011;7439;50.804;4.602;2023-03-14T01:05:53;11.67;;;3.50;;
14698;SDS011;7439;50.804;4.602;2023-03-14T01:08:21;9.33;;;3.47;;
14698;SDS011;7439;50.804;4.602;2023-03-14T01:10:48;9.87;;;3.70;;
14698;SDS011;7439;50.804;4.602;2023-03-14T01:13:15;7.23;;;3.00;;
14698;SDS011;7439;50.804;4.602;2023-03-14T01:15:45;9.80;;;3.50;;
14698;SDS011;7439;50.804;4.602;2023-03-14T01:18:15;10.13;;;3.53;;
14698;SDS011;7439;50.804;4.602;2023-03-14T01:20:44;9.43;;;3.47;;
14698;SDS011;7439;50.804;4.602;2023-03-14T01:23:11;10.90;;;3.37;;
14698;SDS011;7439;50.804;4.602;2023-03-14T01:25:40;10.83;;;3.43;;
14698;SDS011;7439;50.804;4.602;2023-03-14T01:28:07;15.90;;;4.80;;
14698;SDS011;7439;50.804;4.602;2023-03-14T01:30:35;13.87;;;4.27;;
14698;SDS011;7439;50.804;4.602;2023-03-14T01:33:02;10.73;;;3.60;;
14698;SDS011;7439;50.804;4.602;2023-03-14T01:35:30;12.27;;;3.97;;
14698;SDS011;7439;50.804;4.602;2023-03-14T01:37:58;9.33;;;3.70;;
14698;SDS011;7439;50.804;4.602;2023-03-14T01:40:26;7.63;;;3.33;;
14698;SDS011;7439;50.804;4.602;2023-03-14T01:42:56;12.57;;;3.90;;
14698;SDS011;7439;50.804;4.602;2023-03-14T01:48:09;8.83;;;2.90;;
14698;SDS011;7439;50.804;4.602;2023-03-14T01:50:36;6.87;;;3.07;;
14698;SDS011;7439;50.804;4.602;2023-03-14T01:53:05;9.50;;;2.90;;
14698;SDS011;7439;50.804;4.602;2023-03-14T01:55:32;10.13;;;3.37;;
14698;SDS011;7439;50.804;4.602;2023-03-14T01:58:00;7.60;;;4.77;;
14698;SDS011;7439;50.804;4.602;2023-03-14T02:00:30;8.07;;;6.80;;
14698;SDS011;7439;50.804;4.602;2023-03-14T02:02:58;8.80;;;6.87;;
14698;SDS011;7439;50.804;4.602;2023-03-14T02:05:28;9.93;;;8.10;;
14698;SDS011;7439;50.804;4.602;2023-03-14T02:07:57;9.17;;;8.20;;
14698;SDS011;7439;50.804;4.602;2023-03-14T02:10:27;11.77;;;9.60;;
14698;SDS011;7439;50.804;4.602;2023-03-14T02:12:55;12.27;;;10.13;;
14698;SDS011;7439;50.804;4.602;2023-03-14T02:15:23;12.87;;;11.77;;
14698;SDS011;7439;50.804;4.602;2023-03-14T02:17:51;13.30;;;12.03;;
14698;SDS011;7439;50.804;4.602;2023-03-14T02:20:23;14.13;;;13.03;;
14698;SDS011;7439;50.804;4.602;2023-03-14T02:22:54;14.07;;;13.03;;
14698;SDS011;7439;50.804;4.602;2023-03-14T02:25:23;19.10;;;17.77;;
14698;SDS011;7439;50.804;4.602;2023-03-14T02:27:54;21.07;;;19.60;;
14698;SDS011;7439;50.804;4.602;2023-03-14T02:30:22;25.13;;;23.57;;
14698;SDS011;7439;50.804;4.602;2023-03-14T02:32:50;28.43;;;26.67;;
14698;SDS011;7439;50.804;4.602;2023-03-14T02:35:19;29.10;;;27.20;;
14698;SDS011;7439;50.804;4.602;2023-03-14T02:37:49;33.13;;;31.63;;
14698;SDS011;7439;50.804;4.602;2023-03-14T02:40:18;35.07;;;32.87;;
14698;SDS011;7439;50.804;4.602;2023-03-14T02:42:45;33.57;;;31.73;;
14698;SDS011;7439;50.804;4.602;2023-03-14T02:48:01;38.67;;;36.77;;
14698;SDS011;7439;50.804;4.602;2023-03-14T02:50:30;43.20;;;40.90;;
14698;SDS011;7439;50.804;4.602;2023-03-14T02:53:00;49.27;;;46.53;;
14698;SDS011;7439;50.804;4.602;2023-03-14T02:55:27;45.33;;;42.80;;
14698;SDS011;7439;50.804;4.602;2023-03-14T02:57:54;50.53;;;47.53;;
14698;SDS011;7439;50.804;4.602;2023-03-14T03:00:22;52.47;;;48.93;;
14698;SDS011;7439;50.804;4.602;2023-03-14T03:02:49;53.73;;;50.73;;
14698;SDS011;7439;50.804;4.602;2023-03-14T03:05:21;58.50;;;54.80;;
14698;SDS011;7439;50.804;4.602;2023-03-14T03:07:49;63.40;;;59.97;;
14698;SDS011;7439;50.804;4.602;2023-03-14T03:10:16;61.87;;;58.27;;
14698;SDS011;7439;50.804;4.602;2023-03-14T03:12:44;72.23;;;68.03;;
14698;SDS011;7439;50.804;4.602;2023-03-14T03:15:11;75.27;;;71.10;;
14698;SDS011;7439;50.804;4.602;2023-03-14T03:17:38;75.83;;;71.43;;
14698;SDS011;7439;50.804;4.602;2023-03-14T03:20:06;74.67;;;70.77;;
14698;SDS011;7439;50.804;4.602;2023-03-14T03:22:36;84.73;;;80.40;;
14698;SDS011;7439;50.804;4.602;2023-03-14T03:25:04;81.67;;;77.60;;
14698;SDS011;7439;50.804;4.602;2023-03-14T03:27:32;73.30;;;69.03;;
14698;SDS011;7439;50.804;4.602;2023-03-14T03:29:59;72.43;;;68.37;;
14698;SDS011;7439;50.804;4.602;2023-03-14T03:32:27;77.90;;;73.00;;
14698;SDS011;7439;50.804;4.602;2023-03-14T03:34:57;78.57;;;74.87;;
14698;SDS011;7439;50.804;4.602;2023-03-14T03:37:25;83.40;;;79.10;;
14698;SDS011;7439;50.804;4.602;2023-03-14T03:39:53;78.83;;;75.00;;
14698;SDS011;7439;50.804;4.602;2023-03-14T03:42:24;77.90;;;73.80;;
14698;SDS011;7439;50.804;4.602;2023-03-14T03:44:51;76.73;;;72.63;;
14698;SDS011;7439;50.804;4.602;2023-03-14T03:47:18;84.13;;;79.07;;
14698;SDS011;7439;50.804;4.602;2023-03-14T03:49:46;71.07;;;67.40;;
14698;SDS011;7439;50.804;4.602;2023-03-14T03:52:13;77.73;;;73.93;;
14698;SDS011;7439;50.804;4.602;2023-03-14T03:54:41;75.53;;;71.60;;
14698;SDS011;7439;50.804;4.602;2023-03-14T03:57:10;81.77;;;77.47;;
14698;SDS011;7439;50.804;4.602;2023-03-14T03:59:37;75.73;;;71.83;;
14698;SDS011;7439;50.804;4.602;2023-03-14T04:02:06;79.17;;;75.03;;
14698;SDS011;7439;50.804;4.602;2023-03-14T04:04:33;82.40;;;78.67;;
14698;SDS011;7439;50.804;4.602;2023-03-14T04:07:01;81.27;;;77.27;;
14698;SDS011;7439;50.804;4.602;2023-03-14T04:09:29;85.37;;;81.13;;
14698;SDS011;7439;50.804;4.602;2023-03-14T04:11:56;88.00;;;83.20;;
14698;SDS011;7439;50.804;4.602;2023-03-14T04:14:25;80.90;;;76.30;;
14698;SDS011;7439;50.804;4.602;2023-03-14T04:16:52;89.33;;;84.90;;
14698;SDS011;7439;50.804;4.602;2023-03-14T04:19:20;88.97;;;84.33;;
14698;SDS011;7439;50.804;4.602;2023-03-14T04:21:47;85.20;;;80.80;;
14698;SDS011;7439;50.804;4.602;2023-03-14T04:24:15;96.43;;;91.67;;
14698;SDS011;7439;50.804;4.602;2023-03-14T04:26:42;91.50;;;87.37;;
14698;SDS011;7439;50.804;4.602;2023-03-14T04:29:10;98.20;;;93.80;;
14698;SDS011;7439;50.804;4.602;2023-03-14T04:31:38;97.23;;;92.93;;
14698;SDS011;7439;50.804;4.602;2023-03-14T04:34:06;95.13;;;90.80;;
14698;SDS011;7439;50.804;4.602;2023-03-14T04:36:33;98.00;;;93.73;;
14698;SDS011;7439;50.804;4.602;2023-03-14T04:39:00;107.43;;;102.17;;
14698;SDS011;7439;50.804;4.602;2023-03-14T04:41:29;103.07;;;98.37;;
14698;SDS011;7439;50.804;4.602;2023-03-14T04:43:56;110.47;;;105.57;;
14698;SDS011;7439;50.804;4.602;2023-03-14T04:46:24;105.93;;;101.43;;
14698;SDS011;7439;50.804;4.602;2023-03-14T04:48:55;103.63;;;99.33;;
14698;SDS011;7439;50.804;4.602;2023-03-14T04:51:23;116.33;;;111.63;;
14698;SDS011;7439;50.804;4.602;2023-03-14T04:53:52;120.13;;;115.27;;
14698;SDS011;7439;50.804;4.602;2023-03-14T04:56:20;124.13;;;119.13;;
14698;SDS011;7439;50.804;4.602;2023-03-14T04:58:47;120.70;;;115.90;;
14698;SDS011;7439;50.804;4.602;2023-03-14T05:01:15;124.67;;;119.47;;
14698;SDS011;7439;50.804;4.602;2023-03-14T05:03:44;122.93;;;117.33;;
14698;SDS011;7439;50.804;4.602;2023-03-14T05:06:13;124.27;;;119.17;;
14698;SDS011;7439;50.804;4.602;2023-03-14T05:08:40;127.13;;;122.20;;
14698;SDS011;7439;50.804;4.602;2023-03-14T05:11:09;123.73;;;118.63;;
14698;SDS011;7439;50.804;4.602;2023-03-14T05:13:37;135.77;;;130.07;;
14698;SDS011;7439;50.804;4.602;2023-03-14T05:16:04;133.07;;;127.83;;
14698;SDS011;7439;50.804;4.602;2023-03-14T05:18:32;134.00;;;128.43;;
14698;SDS011;7439;50.804;4.602;2023-03-14T05:20:59;140.37;;;134.97;;
14698;SDS011;7439;50.804;4.602;2023-03-14T05:23:31;135.03;;;129.63;;
14698;SDS011;7439;50.804;4.602;2023-03-14T05:26:01;132.33;;;126.93;;
14698;SDS011;7439;50.804;4.602;2023-03-14T05:28:31;134.27;;;128.97;;
14698;SDS011;7439;50.804;4.602;2023-03-14T05:30:59;128.33;;;123.20;;
14698;SDS011;7439;50.804;4.602;2023-03-14T05:33:26;118.27;;;113.47;;
14698;SDS011;7439;50.804;4.602;2023-03-14T05:35:56;119.30;;;114.40;;
14698;SDS011;7439;50.804;4.602;2023-03-14T05:38:24;109.07;;;104.87;;
14698;SDS011;7439;50.804;4.602;2023-03-14T05:40:52;121.20;;;116.23;;
14698;SDS011;7439;50.804;4.602;2023-03-14T05:43:20;112.93;;;108.40;;
14698;SDS011;7439;50.804;4.602;2023-03-14T05:45:47;110.67;;;106.07;;
14698;SDS011;7439;50.804;4.602;2023-03-14T05:48:14;115.07;;;110.27;;
14698;SDS011;7439;50.804;4.602;2023-03-14T05:50:43;116.13;;;111.03;;
14698;SDS011;7439;50.804;4.602;2023-03-14T05:53:10;119.87;;;115.03;;
14698;SDS011;7439;50.804;4.602;2023-03-14T05:55:38;120.47;;;115.67;;
14698;SDS011;7439;50.804;4.602;2023-03-14T05:58:07;118.17;;;113.27;;
14698;SDS011;7439;50.804;4.602;2023-03-14T06:00:34;122.40;;;117.20;;
14698;SDS011;7439;50.804;4.602;2023-03-14T06:03:01;133.53;;;128.03;;
14698;SDS011;7439;50.804;4.602;2023-03-14T06:05:29;131.60;;;126.20;;
14698;SDS011;7439;50.804;4.602;2023-03-14T06:07:56;136.87;;;131.10;;
14698;SDS011;7439;50.804;4.602;2023-03-14T06:10:23;140.40;;;134.30;;
14698;SDS011;7439;50.804;4.602;2023-03-14T06:12:51;140.93;;;134.90;;
14698;SDS011;7439;50.804;4.602;2023-03-14T06:15:20;144.20;;;137.80;;
14698;SDS011;7439;50.804;4.602;2023-03-14T06:17:47;131.37;;;125.20;;
14698;SDS011;7439;50.804;4.602;2023-03-14T06:20:15;129.53;;;124.13;;
14698;SDS011;7439;50.804;4.602;2023-03-14T06:22:42;130.50;;;124.80;;
14698;SDS011;7439;50.804;4.602;2023-03-14T06:25:09;140.30;;;134.40;;
14698;SDS011;7439;50.804;4.602;2023-03-14T06:27:37;152.67;;;146.43;;
14698;SDS011;7439;50.804;4.602;2023-03-14T06:30:04;150.93;;;144.27;;
14698;SDS011;7439;50.804;4.602;2023-03-14T06:32:33;154.77;;;148.33;;
14698;SDS011;7439;50.804;4.602;2023-03-14T06:35:01;149.17;;;142.63;;
14698;SDS011;7439;50.804;4.602;2023-03-14T06:37:28;143.30;;;137.50;;
14698;SDS011;7439;50.804;4.602;2023-03-14T06:39:56;146.60;;;140.57;;
14698;SDS011;7439;50.804;4.602;2023-03-14T06:42:23;154.70;;;148.50;;
14698;SDS011;7439;50.804;4.602;2023-03-14T06:44:51;141.00;;;135.40;;
14698;SDS011;7439;50.804;4.602;2023-03-14T06:47:18;144.37;;;138.70;;
14698;SDS011;7439;50.804;4.602;2023-03-14T06:49:47;143.10;;;137.27;;
14698;SDS011;7439;50.804;4.602;2023-03-14T06:52:14;146.40;;;140.53;;
14698;SDS011;7439;50.804;4.602;2023-03-14T06:54:42;147.13;;;141.23;;
14698;SDS011;7439;50.804;4.602;2023-03-14T06:57:09;144.87;;;139.20;;
14698;SDS011;7439;50.804;4.602;2023-03-14T06:59:36;145.40;;;139.70;;
14698;SDS011;7439;50.804;4.602;2023-03-14T07:02:04;152.53;;;146.57;;
14698;SDS011;7439;50.804;4.602;2023-03-14T07:04:32;146.00;;;140.23;;
14698;SDS011;7439;50.804;4.602;2023-03-14T07:07:01;153.87;;;147.90;;
14698;SDS011;7439;50.804;4.602;2023-03-14T07:09:28;151.13;;;145.17;;
14698;SDS011;7439;50.804;4.602;2023-03-14T07:11:56;214.90;;;207.07;;
14698;SDS011;7439;50.804;4.602;2023-03-14T07:14:23;236.83;;;228.20;;
14698;SDS011;7439;50.804;4.602;2023-03-14T07:16:50;241.13;;;232.23;;
14698;SDS011;7439;50.804;4.602;2023-03-14T07:19:18;224.27;;;215.83;;
14698;SDS011;7439;50.804;4.602;2023-03-14T07:21:45;236.00;;;227.33;;
14698;SDS011;7439;50.804;4.602;2023-03-14T07:24:14;223.13;;;214.90;;
14698;SDS011;7439;50.804;4.602;2023-03-14T07:26:41;236.23;;;227.73;;
14698;SDS011;7439;50.804;4.602;2023-03-14T07:29:08;228.00;;;219.73;;
14698;SDS011;7439;50.804;4.602;2023-03-14T07:31:36;244.50;;;235.57;;
14698;SDS011;7439;50.804;4.602;2023-03-14T07:34:03;233.87;;;225.17;;
14698;SDS011;7439;50.804;4.602;2023-03-14T07:36:31;222.17;;;214.17;;
14698;SDS011;7439;50.804;4.602;2023-03-14T07:39:02;225.40;;;217.00;;
14698;SDS011;7439;50.804;4.602;2023-03-14T07:41:31;219.40;;;211.40;;
14698;SDS011;7439;50.804;4.602;2023-03-14T07:44:00;229.73;;;221.30;;
14698;SDS011;7439;50.804;4.602;2023-03-14T07:46:27;227.13;;;218.63;;
14698;SDS011;7439;50.804;4.602;2023-03-14T07:48:54;214.57;;;206.73;;
14698;SDS011;7439;50.804;4.602;2023-03-14T07:51:22;229.07;;;220.77;;
14698;SDS011;7439;50.804;4.602;2023-03-14T07:53:49;228.83;;;220.33;;
14698;SDS011;7439;50.804;4.602;2023-03-14T07:56:17;220.83;;;212.50;;
14698;SDS011;7439;50.804;4.602;2023-03-14T07:58:45;198.40;;;190.93;;
14698;SDS011;7439;50.804;4.602;2023-03-14T08:01:13;220.93;;;212.90;;
14698;SDS011;7439;50.804;4.602;2023-03-14T08:03:40;217.93;;;209.87;;
14698;SDS011;7439;50.804;4.602;2023-03-14T08:06:08;212.33;;;204.50;;
14698;SDS011;7439;50.804;4.602;2023-03-14T08:08:35;201.90;;;194.37;;
14698;SDS011;7439;50.804;4.602;2023-03-14T08:11:03;159.73;;;153.53;;
14698;SDS011;7439;50.804;4.602;2023-03-14T08:13:37;170.47;;;164.17;;
14698;SDS011;7439;50.804;4.602;2023-03-14T08:16:13;156.43;;;150.23;;
14698;SDS011;7439;50.804;4.602;2023-03-14T08:18:40;154.07;;;147.87;;
14698;SDS011;7439;50.804;4.602;2023-03-14T08:21:07;150.00;;;144.03;;
14698;SDS011;7439;50.804;4.602;2023-03-14T08:23:35;152.40;;;146.40;;
14698;SDS011;7439;50.804;4.602;2023-03-14T08:26:02;155.00;;;148.70;;
14698;SDS011;7439;50.804;4.602;2023-03-14T08:28:30;147.47;;;141.57;;
14698;SDS011;7439;50.804;4.602;2023-03-14T08:30:58;142.80;;;136.80;;
14698;SDS011;7439;50.804;4.602;2023-03-14T08:33:28;147.13;;;140.87;;
14698;SDS011;7439;50.804;4.602;2023-03-14T08:35:56;150.47;;;144.53;;
14698;SDS011;7439;50.804;4.602;2023-03-14T08:38:24;159.47;;;152.93;;
14698;SDS011;7439;50.804;4.602;2023-03-14T08:40:54;166.20;;;159.67;;
14698;SDS011;7439;50.804;4.602;2023-03-14T08:43:22;157.27;;;151.07;;
14698;SDS011;7439;50.804;4.602;2023-03-14T08:45:50;166.10;;;159.77;;
14698;SDS011;7439;50.804;4.602;2023-03-14T08:48:17;164.47;;;158.13;;
14698;SDS011;7439;50.804;4.602;2023-03-14T08:50:46;186.80;;;179.80;;
14698;SDS011;7439;50.804;4.602;2023-03-14T08:53:13;182.53;;;175.53;;
14698;SDS011;7439;50.804;4.602;2023-03-14T08:55:41;204.73;;;197.13;;
14698;SDS011;7439;50.804;4.602;2023-03-14T08:58:08;196.87;;;189.37;;
14698;SDS011;7439;50.804;4.602;2023-03-14T09:00:35;197.57;;;190.37;;
14698;SDS011;7439;50.804;4.602;2023-03-14T09:03:03;204.27;;;196.63;;
14698;SDS011;7439;50.804;4.602;2023-03-14T09:05:32;205.67;;;197.77;;
14698;SDS011;7439;50.804;4.602;2023-03-14T09:08:01;202.73;;;194.90;;
14698;SDS011;7439;50.804;4.602;2023-03-14T09:10:29;189.50;;;182.30;;
14698;SDS011;7439;50.804;4.602;2023-03-14T09:12:56;180.00;;;172.77;;
14698;SDS011;7439;50.804;4.602;2023-03-14T09:15:25;173.13;;;166.37;;
14698;SDS011;7439;50.804;4.602;2023-03-14T09:17:53;171.70;;;164.90;;
14698;SDS011;7439;50.804;4.602;2023-03-14T09:20:20;180.20;;;173.07;;
14698;SDS011;7439;50.804;4.602;2023-03-14T09:22:48;173.47;;;166.63;;
14698;SDS011;7439;50.804;4.602;2023-03-14T09:25:17;174.73;;;167.73;;
14698;SDS011;7439;50.804;4.602;2023-03-14T09:27:44;185.97;;;178.57;;
14698;SDS011;7439;50.804;4.602;2023-03-14T09:30:12;193.63;;;186.10;;
14698;SDS011;7439;50.804;4.602;2023-03-14T09:32:40;202.77;;;195.17;;
14698;SDS011;7439;50.804;4.602;2023-03-14T09:35:07;190.03;;;182.53;;
14698;SDS011;7439;50.804;4.602;2023-03-14T09:37:35;194.17;;;186.43;;
14698;SDS011;7439;50.804;4.602;2023-03-14T09:40:02;186.47;;;179.07;;
14698;SDS011;7439;50.804;4.602;2023-03-14T09:42:37;182.50;;;174.93;;
14698;SDS011;7439;50.804;4.602;2023-03-14T09:45:12;185.83;;;178.10;;
14698;SDS011;7439;50.804;4.602;2023-03-14T09:47:41;192.07;;;184.07;;
14698;SDS011;7439;50.804;4.602;2023-03-14T09:50:10;181.30;;;173.87;;
14698;SDS011;7439;50.804;4.602;2023-03-14T09:52:38;186.10;;;178.83;;
14698;SDS011;7439;50.804;4.602;2023-03-14T09:55:10;168.70;;;162.00;;
14698;SDS011;7439;50.804;4.602;2023-03-14T09:57:40;168.73;;;160.97;;
14698;SDS011;7439;50.804;4.602;2023-03-14T10:00:13;183.53;;;175.37;;
14698;SDS011;7439;50.804;4.602;2023-03-14T10:02:46;176.37;;;168.60;;
14698;SDS011;7439;50.804;4.602;2023-03-14T10:05:17;195.37;;;187.53;;
14698;SDS011;7439;50.804;4.602;2023-03-14T10:07:45;205.97;;;197.57;;
14698;SDS011;7439;50.804;4.602;2023-03-14T10:10:13;215.70;;;206.77;;
14698;SDS011;7439;50.804;4.602;2023-03-14T10:12:45;218.57;;;210.03;;
14698;SDS011;7439;50.804;4.602;2023-03-14T10:15:13;208.63;;;200.20;;
14698;SDS011;7439;50.804;4.602;2023-03-14T10:17:43;243.67;;;234.07;;
14698;SDS011;7439;50.804;4.602;2023-03-14T10:22:58;250.27;;;240.63;;
14698;SDS011;7439;50.804;4.602;2023-03-14T10:25:26;261.33;;;251.23;;
14698;SDS011;7439;50.804;4.602;2023-03-14T10:27:55;234.77;;;225.37;;
14698;SDS011;7439;50.804;4.602;2023-03-14T10:30:38;283.87;;;272.43;;
14698;SDS011;7439;50.804;4.602;2023-03-14T10:33:09;278.53;;;267.13;;
14698;SDS011;7439;50.804;4.602;2023-03-14T10:35:37;313.97;;;301.83;;
14698;SDS011;7439;50.804;4.602;2023-03-14T10:38:04;302.73;;;291.23;;
14698;SDS011;7439;50.804;4.602;2023-03-14T10:40:32;288.70;;;277.23;;
14698;SDS011;7439;50.804;4.602;2023-03-14T10:43:03;259.73;;;249.47;;
14698;SDS011;7439;50.804;4.602;2023-03-14T10:45:33;264.83;;;254.67;;
14698;SDS011;7439;50.804;4.602;2023-03-14T10:48:07;244.20;;;234.47;;
14698;SDS011;7439;50.804;4.602;2023-03-14T10:50:47;259.20;;;248.57;;
14698;SDS011;7439;50.804;4.602;2023-03-14T10:53:18;242.53;;;233.23;;
14698;SDS011;7439;50.804;4.602;2023-03-14T10:55:47;263.60;;;253.47;;
14698;SDS011;7439;50.804;4.602;2023-03-14T10:58:23;263.00;;;252.77;;
14698;SDS011;7439;50.804;4.602;2023-03-14T11:00:53;244.10;;;234.10;;
14698;SDS011;7439;50.804;4.602;2023-03-14T11:03:24;243.77;;;234.37;;
14698;SDS011;7439;50.804;4.602;2023-03-14T11:05:54;204.87;;;196.73;;
14698;SDS011;7439;50.804;4.602;2023-03-14T11:08:24;216.70;;;208.53;;
14698;SDS011;7439;50.804;4.602;2023-03-14T11:10:53;221.73;;;213.33;;
14698;SDS011;7439;50.804;4.602;2023-03-14T11:13:23;198.00;;;190.33;;
14698;SDS011;7439;50.804;4.602;2023-03-14T11:15:57;218.23;;;210.00;;
14698;SDS011;7439;50.804;4.602;2023-03-14T11:21:08;214.27;;;206.10;;
14698;SDS011;7439;50.804;4.602;2023-03-14T11:23:39;206.40;;;198.07;;
14698;SDS011;7439;50.804;4.602;2023-03-14T11:26:11;201.40;;;193.53;;
14698;SDS011;7439;50.804;4.602;2023-03-14T11:28:43;208.17;;;200.07;;
14698;SDS011;7439;50.804;4.602;2023-03-14T11:31:14;205.50;;;197.50;;
14698;SDS011;7439;50.804;4.602;2023-03-14T11:33:47;219.57;;;210.93;;
14698;SDS011;7439;50.804;4.602;2023-03-14T11:36:19;217.70;;;209.50;;
14698;SDS011;7439;50.804;4.602;2023-03-14T11:38:48;211.30;;;203.20;;
14698;SDS011;7439;50.804;4.602;2023-03-14T11:41:17;204.60;;;196.73;;
14698;SDS011;7439;50.804;4.602;2023-03-14T11:43:48;203.63;;;196.03;;
14698;SDS011;7439;50.804;4.602;2023-03-14T11:46:16;203.70;;;196.30;;
14698;SDS011;7439;50.804;4.602;2023-03-14T11:48:45;195.47;;;188.13;;
14698;SDS011;7439;50.804;4.602;2023-03-14T11:51:22;197.20;;;189.97;;
14698;SDS011;7439;50.804;4.602;2023-03-14T11:53:53;197.80;;;190.50;;
14698;SDS011;7439;50.804;4.602;2023-03-14T11:56:24;181.60;;;174.80;;
14698;SDS011;7439;50.804;4.602;2023-03-14T11:58:55;192.77;;;185.70;;
14698;SDS011;7439;50.804;4.602;2023-03-14T12:01:27;198.40;;;191.00;;
14698;SDS011;7439;50.804;4.602;2023-03-14T12:03:56;187.87;;;180.97;;
14698;SDS011;7439;50.804;4.602;2023-03-14T12:06:25;191.73;;;184.70;;
14698;SDS011;7439;50.804;4.602;2023-03-14T12:08:54;202.70;;;195.33;;
14698;SDS011;7439;50.804;4.602;2023-03-14T12:11:30;201.73;;;194.33;;
14698;SDS011;7439;50.804;4.602;2023-03-14T12:14:00;210.13;;;202.57;;
14698;SDS011;7439;50.804;4.602;2023-03-14T12:16:32;193.63;;;186.57;;
14698;SDS011;7439;50.804;4.602;2023-03-14T12:19:24;176.03;;;169.50;;
14698;SDS011;7439;50.804;4.602;2023-03-14T12:21:53;188.87;;;182.00;;
14698;SDS011;7439;50.804;4.602;2023-03-14T12:24:23;165.23;;;159.00;;
14698;SDS011;7439;50.804;4.602;2023-03-14T12:26:54;163.70;;;157.50;;
14698;SDS011;7439;50.804;4.602;2023-03-14T12:29:23;153.80;;;147.97;;
14698;SDS011;7439;50.804;4.602;2023-03-14T12:32:05;151.23;;;145.43;;
14698;SDS011;7439;50.804;4.602;2023-03-14T12:34:33;149.50;;;143.73;;
14698;SDS011;7439;50.804;4.602;2023-03-14T12:37:12;142.67;;;137.23;;
14698;SDS011;7439;50.804;4.602;2023-03-14T12:39:43;158.40;;;152.50;;
14698;SDS011;7439;50.804;4.602;2023-03-14T12:42:15;150.63;;;144.97;;
14698;SDS011;7439;50.804;4.602;2023-03-14T12:44:46;138.80;;;133.37;;
14698;SDS011;7439;50.804;4.602;2023-03-14T12:50:06;160.90;;;154.73;;
14698;SDS011;7439;50.804;4.602;2023-03-14T12:52:35;160.10;;;154.10;;
14698;SDS011;7439;50.804;4.602;2023-03-14T12:55:04;154.93;;;148.97;;
14698;SDS011;7439;50.804;4.602;2023-03-14T12:57:36;166.43;;;160.10;;
14698;SDS011;7439;50.804;4.602;2023-03-14T13:00:16;162.60;;;156.47;;
14698;SDS011;7439;50.804;4.602;2023-03-14T13:02:44;152.60;;;146.83;;
14698;SDS011;7439;50.804;4.602;2023-03-14T13:05:14;156.70;;;150.73;;
14698;SDS011;7439;50.804;4.602;2023-03-14T13:08:03;154.67;;;148.67;;
14698;SDS011;7439;50.804;4.602;2023-03-14T13:10:38;151.73;;;145.17;;
14698;SDS011;7439;50.804;4.602;2023-03-14T13:13:11;148.27;;;142.67;;
14698;SDS011;7439;50.804;4.602;2023-03-14T13:15:42;150.07;;;144.27;;
14698;SDS011;7439;50.804;4.602;2023-03-14T13:18:10;158.07;;;152.03;;
14698;SDS011;7439;50.804;4.602;2023-03-14T13:20:38;155.40;;;149.50;;
14698;SDS011;7439;50.804;4.602;2023-03-14T13:23:20;152.23;;;146.07;;
14698;SDS011;7439;50.804;4.602;2023-03-14T13:25:47;145.67;;;139.17;;
14698;SDS011;7439;50.804;4.602;2023-03-14T13:28:15;151.67;;;145.87;;
14698;SDS011;7439;50.804;4.602;2023-03-14T13:30:43;145.80;;;139.93;;
14698;SDS011;7439;50.804;4.602;2023-03-14T13:33:12;154.03;;;148.13;;
14698;SDS011;7439;50.804;4.602;2023-03-14T13:35:41;163.20;;;156.97;;
14698;SDS011;7439;50.804;4.602;2023-03-14T13:38:18;160.03;;;153.80;;
14698;SDS011;7439;50.804;4.602;2023-03-14T13:40:47;170.77;;;164.37;;
14698;SDS011;7439;50.804;4.602;2023-03-14T13:43:16;180.70;;;173.90;;
14698;SDS011;7439;50.804;4.602;2023-03-14T13:45:45;188.80;;;181.70;;
14698;SDS011;7439;50.804;4.602;2023-03-14T13:48:14;184.97;;;177.87;;
14698;SDS011;7439;50.804;4.602;2023-03-14T13:50:52;150.27;;;144.47;;
14698;SDS011;7439;50.804;4.602;2023-03-14T13:53:20;136.17;;;130.67;;
14698;SDS011;7439;50.804;4.602;2023-03-14T13:55:50;134.23;;;128.83;;
14698;SDS011;7439;50.804;4.602;2023-03-14T13:58:21;146.03;;;140.03;;
14698;SDS011;7439;50.804;4.602;2023-03-14T14:00:56;158.03;;;151.43;;
14698;SDS011;7439;50.804;4.602;2023-03-14T14:03:24;188.53;;;181.27;;
14698;SDS011;7439;50.804;4.602;2023-03-14T14:05:52;189.73;;;181.93;;
14698;SDS011;7439;50.804;4.602;2023-03-14T14:08:21;195.60;;;188.10;;
14698;SDS011;7439;50.804;4.602;2023-03-14T14:10:50;220.20;;;211.03;;
14698;SDS011;7439;50.804;4.602;2023-03-14T14:13:21;215.80;;;206.97;;
14698;SDS011;7439;50.804;4.602;2023-03-14T14:15:50;225.50;;;214.67;;
14698;SDS011;7439;50.804;4.602;2023-03-14T14:18:19;244.57;;;234.13;;
14698;SDS011;7439;50.804;4.602;2023-03-14T14:20:48;244.87;;;234.57;;
14698;SDS011;7439;50.804;4.602;2023-03-14T14:23:17;252.43;;;242.13;;
14698;SDS011;7439;50.804;4.602;2023-03-14T14:25:51;278.30;;;266.70;;
14698;SDS011;7439;50.804;4.602;2023-03-14T14:28:22;270.77;;;259.23;;
14698;SDS011;7439;50.804;4.602;2023-03-14T14:30:59;266.03;;;254.70;;
14698;SDS011;7439;50.804;4.602;2023-03-14T14:33:26;231.13;;;221.33;;
14698;SDS011;7439;50.804;4.602;2023-03-14T14:35:54;213.07;;;203.93;;
14698;SDS011;7439;50.804;4.602;2023-03-14T14:38:22;214.83;;;206.17;;
14698;SDS011;7439;50.804;4.602;2023-03-14T14:40:51;199.80;;;190.70;;
14698;SDS011;7439;50.804;4.602;2023-03-14T14:43:21;209.07;;;199.97;;
14698;SDS011;7439;50.804;4.602;2023-03-14T14:45:49;222.57;;;212.57;;